AAL2928 KBOS-KPHL
Flight info
| Callsign | AAL2928 |
|---|---|
| Flight time | 0h 58m |
| Altitude | 24000 |
| Route | SSOXS7 SSOXS Q167 RIFLE Q439 BRIGS JIIMS4 |
| Aircraft | A321/M-SDE3FGHIRWY/LB1 |
Departure
| Time | 2026-05-05 05:58 |
|---|---|
| Airport | Boston Logan International Airport (KBOS) |
Arrival
| Time | 2026-05-05 06:56 |
|---|---|
| Airport | Philadelphia International Airport (KPHL) |
| Time | Latitude | Longitude | Altitude | Speed | Heading |
|---|---|---|---|---|---|
| 2026-05-05 05:36 | 42.36195 | -71.02176 | 27 ft | 0 kts | 131° |
| 2026-05-05 05:48 | 42.36205 | -71.02191 | 25 ft | 4 kts | 124° |
| 2026-05-05 05:49 | 42.36215 | -71.02221 | 29 ft | 2 kts | 102° |
| 2026-05-05 05:49 | 42.36221 | -71.02246 | 30 ft | 4 kts | 144° |
| 2026-05-05 05:49 | 42.36239 | -71.02248 | 30 ft | 4 kts | 202° |
| 2026-05-05 05:49 | 42.36255 | -71.02240 | 27 ft | 0 kts | 202° |
| 2026-05-05 05:51 | 42.36253 | -71.02240 | 27 ft | 1 kts | 202° |
| 2026-05-05 05:52 | 42.36216 | -71.02262 | 29 ft | 8 kts | 202° |
| 2026-05-05 05:52 | 42.36146 | -71.02275 | 27 ft | 15 kts | 170° |
| 2026-05-05 05:52 | 42.36070 | -71.02162 | 25 ft | 17 kts | 121° |
| 2026-05-05 05:52 | 42.36006 | -71.02019 | 28 ft | 18 kts | 120° |
| 2026-05-05 05:53 | 42.35939 | -71.01866 | 28 ft | 19 kts | 121° |
| 2026-05-05 05:53 | 42.35902 | -71.01700 | 27 ft | 13 kts | 100° |
| 2026-05-05 05:53 | 42.35956 | -71.01616 | 25 ft | 14 kts | 20° |
| 2026-05-05 05:53 | 42.36049 | -71.01570 | 28 ft | 15 kts | 19° |
| 2026-05-05 05:54 | 42.36150 | -71.01521 | 27 ft | 16 kts | 19° |
| 2026-05-05 05:54 | 42.36259 | -71.01469 | 27 ft | 17 kts | 20° |
| 2026-05-05 05:54 | 42.36374 | -71.01413 | 27 ft | 18 kts | 20° |
| 2026-05-05 05:54 | 42.36493 | -71.01351 | 27 ft | 19 kts | 25° |
| 2026-05-05 05:55 | 42.36618 | -71.01278 | 28 ft | 20 kts | 19° |
| 2026-05-05 05:55 | 42.36757 | -71.01247 | 27 ft | 20 kts | 347° |
| 2026-05-05 05:55 | 42.36866 | -71.01371 | 29 ft | 21 kts | 315° |
| 2026-05-05 05:55 | 42.36970 | -71.01516 | 27 ft | 21 kts | 310° |
| 2026-05-05 05:56 | 42.37072 | -71.01654 | 27 ft | 21 kts | 315° |
| 2026-05-05 05:56 | 42.37156 | -71.01818 | 28 ft | 22 kts | 303° |
| 2026-05-05 05:56 | 42.37221 | -71.01927 | 29 ft | 12 kts | 335° |
| 2026-05-05 05:56 | 42.37295 | -71.01890 | 27 ft | 12 kts | 21° |
| 2026-05-05 05:57 | 42.37374 | -71.01835 | 27 ft | 13 kts | 38° |
| 2026-05-05 05:57 | 42.37405 | -71.01770 | 27 ft | 8 kts | 102° |
| 2026-05-05 05:57 | 42.37343 | -71.01681 | 26 ft | 34 kts | 135° |
| 2026-05-05 05:57 | 42.36982 | -71.01196 | 28 ft | 109 kts | 135° |
| 2026-05-05 05:58 | 42.36290 | -71.00265 | 34 ft | 167 kts | 136° |
| 2026-05-05 05:58 | 42.35449 | -70.99124 | 630 ft | 172 kts | 139° |
| 2026-05-05 05:58 | 42.34659 | -70.97908 | 1340 ft | 182 kts | 129° |
| 2026-05-05 05:58 | 42.34163 | -70.96254 | 1908 ft | 200 kts | 114° |
| 2026-05-05 05:59 | 42.33749 | -70.94354 | 2212 ft | 220 kts | 113° |
| 2026-05-05 05:59 | 42.33298 | -70.92285 | 2514 ft | 239 kts | 112° |
| 2026-05-05 05:59 | 42.32811 | -70.90023 | 2714 ft | 265 kts | 111° |
| 2026-05-05 05:59 | 42.32337 | -70.87484 | 3067 ft | 288 kts | 98° |
| 2026-05-05 06:00 | 42.32515 | -70.84747 | 3833 ft | 297 kts | 76° |
| 2026-05-05 06:00 | 42.32980 | -70.82049 | 4742 ft | 295 kts | 84° |
| 2026-05-05 06:00 | 42.32894 | -70.79297 | 5559 ft | 293 kts | 105° |
| 2026-05-05 06:00 | 42.32204 | -70.76742 | 6419 ft | 289 kts | 118° |
| 2026-05-05 06:01 | 42.31366 | -70.74310 | 7221 ft | 289 kts | 118° |
| 2026-05-05 06:01 | 42.30499 | -70.71848 | 8010 ft | 291 kts | 122° |
| 2026-05-05 06:01 | 42.29313 | -70.69641 | 8781 ft | 290 kts | 137° |
| 2026-05-05 06:01 | 42.27761 | -70.67929 | 9546 ft | 288 kts | 152° |
| 2026-05-05 06:02 | 42.25949 | -70.66798 | 10248 ft | 289 kts | 164° |
| 2026-05-05 06:02 | 42.23968 | -70.65902 | 10481 ft | 311 kts | 165° |
| 2026-05-05 06:02 | 42.21836 | -70.64947 | 10633 ft | 335 kts | 164° |
| 2026-05-05 06:02 | 42.19568 | -70.63923 | 10930 ft | 350 kts | 164° |
| 2026-05-05 06:03 | 42.17236 | -70.62876 | 11517 ft | 355 kts | 167° |
| 2026-05-05 06:03 | 42.14804 | -70.62260 | 12102 ft | 357 kts | 179° |
| 2026-05-05 06:03 | 42.12319 | -70.62328 | 12713 ft | 358 kts | 191° |
| 2026-05-05 06:03 | 42.09889 | -70.63076 | 13352 ft | 359 kts | 201° |
| 2026-05-05 06:04 | 42.07509 | -70.64144 | 13978 ft | 363 kts | 202° |
| 2026-05-05 06:04 | 42.05101 | -70.65219 | 14581 ft | 366 kts | 202° |
| 2026-05-05 06:04 | 42.02674 | -70.66295 | 15204 ft | 369 kts | 202° |
| 2026-05-05 06:04 | 42.00222 | -70.67376 | 15835 ft | 372 kts | 202° |
| 2026-05-05 06:05 | 41.97760 | -70.68460 | 16472 ft | 375 kts | 202° |
| 2026-05-05 06:05 | 41.95267 | -70.69555 | 17055 ft | 378 kts | 202° |
| 2026-05-05 06:05 | 41.92750 | -70.70656 | 17675 ft | 382 kts | 202° |
| 2026-05-05 06:05 | 41.90211 | -70.71760 | 18282 ft | 384 kts | 202° |
| 2026-05-05 06:06 | 41.87658 | -70.72874 | 18805 ft | 387 kts | 202° |
| 2026-05-05 06:06 | 41.85088 | -70.74000 | 19329 ft | 390 kts | 203° |
| 2026-05-05 06:06 | 41.82594 | -70.75425 | 19840 ft | 389 kts | 212° |
| 2026-05-05 06:06 | 41.80227 | -70.77205 | 20367 ft | 391 kts | 213° |
| 2026-05-05 06:07 | 41.77876 | -70.78981 | 20847 ft | 394 kts | 213° |
| 2026-05-05 06:07 | 41.75480 | -70.80788 | 21350 ft | 397 kts | 213° |
| 2026-05-05 06:07 | 41.73058 | -70.82611 | 21836 ft | 400 kts | 213° |
| 2026-05-05 06:07 | 41.70621 | -70.84442 | 22318 ft | 403 kts | 213° |
| 2026-05-05 06:08 | 41.68166 | -70.86283 | 22795 ft | 406 kts | 213° |
| 2026-05-05 06:08 | 41.65690 | -70.88134 | 23263 ft | 409 kts | 213° |
| 2026-05-05 06:08 | 41.63194 | -70.90000 | 23686 ft | 412 kts | 213° |
| 2026-05-05 06:08 | 41.60684 | -70.91875 | 23914 ft | 414 kts | 213° |
| 2026-05-05 06:09 | 41.58156 | -70.93765 | 23961 ft | 417 kts | 214° |
| 2026-05-05 06:09 | 41.55768 | -70.95955 | 23971 ft | 415 kts | 223° |
| 2026-05-05 06:09 | 41.53697 | -70.98607 | 23971 ft | 411 kts | 232° |
| 2026-05-05 06:09 | 41.51984 | -71.01642 | 23972 ft | 408 kts | 239° |
| 2026-05-05 06:10 | 41.50418 | -71.04807 | 23975 ft | 408 kts | 239° |
| 2026-05-05 06:10 | 41.48846 | -71.07960 | 23978 ft | 408 kts | 239° |
| 2026-05-05 06:10 | 41.47265 | -71.11110 | 23979 ft | 408 kts | 239° |
| 2026-05-05 06:10 | 41.45702 | -71.14215 | 23978 ft | 408 kts | 239° |
| 2026-05-05 06:11 | 41.44116 | -71.17361 | 23965 ft | 409 kts | 238° |
| 2026-05-05 06:11 | 41.42525 | -71.20514 | 23968 ft | 410 kts | 238° |
| 2026-05-05 06:11 | 41.40932 | -71.23672 | 23972 ft | 410 kts | 238° |
| 2026-05-05 06:11 | 41.39342 | -71.26827 | 23975 ft | 410 kts | 238° |
| 2026-05-05 06:12 | 41.37753 | -71.29980 | 23975 ft | 410 kts | 238° |
| 2026-05-05 06:12 | 41.36165 | -71.33133 | 23977 ft | 410 kts | 238° |
| 2026-05-05 06:12 | 41.34574 | -71.36291 | 23984 ft | 410 kts | 238° |
| 2026-05-05 06:12 | 41.32989 | -71.39437 | 23982 ft | 410 kts | 238° |
| 2026-05-05 06:13 | 41.31397 | -71.42591 | 23980 ft | 410 kts | 238° |
| 2026-05-05 06:13 | 41.29805 | -71.45734 | 23979 ft | 410 kts | 238° |
| 2026-05-05 06:13 | 41.28211 | -71.48874 | 23984 ft | 410 kts | 238° |
| 2026-05-05 06:13 | 41.26616 | -71.52019 | 23980 ft | 410 kts | 238° |
| 2026-05-05 06:14 | 41.25562 | -71.54098 | 23982 ft | 410 kts | 238° |
| 2026-05-05 06:14 | 41.23432 | -71.58298 | 23988 ft | 410 kts | 238° |
| 2026-05-05 06:14 | 41.22377 | -71.60376 | 23982 ft | 410 kts | 238° |
| 2026-05-05 06:14 | 41.20781 | -71.63517 | 23981 ft | 410 kts | 238° |
| 2026-05-05 06:15 | 41.19185 | -71.66650 | 23980 ft | 410 kts | 238° |
| 2026-05-05 06:15 | 41.17583 | -71.69784 | 23979 ft | 410 kts | 238° |
| 2026-05-05 06:15 | 41.15981 | -71.72910 | 23979 ft | 410 kts | 238° |
| 2026-05-05 06:15 | 41.14379 | -71.76035 | 23967 ft | 410 kts | 238° |
| 2026-05-05 06:16 | 41.12780 | -71.79169 | 23971 ft | 410 kts | 238° |
| 2026-05-05 06:16 | 41.11188 | -71.82303 | 23966 ft | 410 kts | 238° |
| 2026-05-05 06:16 | 41.09595 | -71.85445 | 23968 ft | 410 kts | 238° |
| 2026-05-05 06:16 | 41.08002 | -71.88581 | 23971 ft | 410 kts | 238° |
| 2026-05-05 06:17 | 41.06407 | -71.91713 | 23966 ft | 410 kts | 238° |
| 2026-05-05 06:17 | 41.04805 | -71.94848 | 23968 ft | 410 kts | 238° |
| 2026-05-05 06:17 | 41.03286 | -71.98039 | 23965 ft | 409 kts | 244° |
| 2026-05-05 06:17 | 41.02068 | -72.01431 | 23970 ft | 408 kts | 247° |
| 2026-05-05 06:18 | 41.00877 | -72.04842 | 23968 ft | 408 kts | 247° |
| 2026-05-05 06:18 | 40.99681 | -72.08243 | 23966 ft | 408 kts | 247° |
| 2026-05-05 06:18 | 40.98496 | -72.11601 | 23955 ft | 408 kts | 246° |
| 2026-05-05 06:18 | 40.97290 | -72.15010 | 23956 ft | 408 kts | 246° |
| 2026-05-05 06:19 | 40.96087 | -72.18410 | 23956 ft | 408 kts | 246° |
| 2026-05-05 06:19 | 40.94879 | -72.21812 | 23952 ft | 408 kts | 246° |
| 2026-05-05 06:19 | 40.93667 | -72.25224 | 23953 ft | 409 kts | 246° |
| 2026-05-05 06:19 | 40.92436 | -72.28618 | 23961 ft | 409 kts | 243° |
| 2026-05-05 06:20 | 40.90890 | -72.31793 | 23951 ft | 412 kts | 234° |
| 2026-05-05 06:20 | 40.88959 | -72.34606 | 23959 ft | 414 kts | 227° |
| 2026-05-05 06:20 | 40.86904 | -72.37274 | 23959 ft | 414 kts | 227° |
| 2026-05-05 06:20 | 40.84849 | -72.39950 | 23961 ft | 414 kts | 227° |
| 2026-05-05 06:21 | 40.82796 | -72.42624 | 23957 ft | 414 kts | 227° |
| 2026-05-05 06:21 | 40.80742 | -72.45305 | 23961 ft | 415 kts | 227° |
| 2026-05-05 06:21 | 40.78599 | -72.47791 | 23966 ft | 417 kts | 222° |
| 2026-05-05 06:21 | 40.76360 | -72.50229 | 23966 ft | 417 kts | 222° |
| 2026-05-05 06:22 | 40.74120 | -72.52658 | 23958 ft | 417 kts | 222° |
| 2026-05-05 06:22 | 40.71869 | -72.55095 | 23960 ft | 417 kts | 222° |
| 2026-05-05 06:22 | 40.69628 | -72.57526 | 23961 ft | 417 kts | 222° |
| 2026-05-05 06:22 | 40.67520 | -72.60146 | 23968 ft | 416 kts | 227° |
| 2026-05-05 06:23 | 40.65472 | -72.62836 | 23961 ft | 416 kts | 226° |
| 2026-05-05 06:23 | 40.63419 | -72.65520 | 23963 ft | 416 kts | 227° |
| 2026-05-05 06:23 | 40.61362 | -72.68208 | 23960 ft | 416 kts | 227° |
| 2026-05-05 06:23 | 40.59325 | -72.70861 | 23961 ft | 416 kts | 227° |
| 2026-05-05 06:24 | 40.57269 | -72.73536 | 23964 ft | 416 kts | 226° |
| 2026-05-05 06:24 | 40.55202 | -72.76222 | 23965 ft | 417 kts | 226° |
| 2026-05-05 06:24 | 40.53142 | -72.78901 | 23965 ft | 417 kts | 226° |
| 2026-05-05 06:24 | 40.51070 | -72.81570 | 23962 ft | 417 kts | 226° |
| 2026-05-05 06:25 | 40.48955 | -72.84188 | 23963 ft | 418 kts | 225° |
| 2026-05-05 06:25 | 40.46810 | -72.86763 | 23961 ft | 418 kts | 224° |
| 2026-05-05 06:25 | 40.44681 | -72.89286 | 23959 ft | 416 kts | 224° |
| 2026-05-05 06:25 | 40.42550 | -72.91807 | 23766 ft | 408 kts | 224° |
| 2026-05-05 06:26 | 40.40459 | -72.94298 | 23555 ft | 405 kts | 224° |
| 2026-05-05 06:26 | 40.38382 | -72.96787 | 23308 ft | 403 kts | 224° |
| 2026-05-05 06:26 | 40.36324 | -72.99262 | 23056 ft | 401 kts | 224° |
| 2026-05-05 06:26 | 40.34272 | -73.01731 | 22811 ft | 400 kts | 225° |
| 2026-05-05 06:27 | 40.32226 | -73.04185 | 22567 ft | 397 kts | 224° |
| 2026-05-05 06:27 | 40.28169 | -73.09051 | 22077 ft | 392 kts | 224° |
| 2026-05-05 06:27 | 40.26158 | -73.11464 | 21838 ft | 391 kts | 224° |
| 2026-05-05 06:28 | 40.24156 | -73.13864 | 21602 ft | 389 kts | 224° |
| 2026-05-05 06:28 | 40.22156 | -73.16258 | 21367 ft | 389 kts | 224° |
| 2026-05-05 06:28 | 40.20167 | -73.18639 | 21125 ft | 386 kts | 224° |
| 2026-05-05 06:28 | 40.18179 | -73.21013 | 20903 ft | 385 kts | 224° |
| 2026-05-05 06:29 | 40.16203 | -73.23367 | 20673 ft | 383 kts | 224° |
| 2026-05-05 06:29 | 40.14255 | -73.25686 | 20452 ft | 383 kts | 224° |
| 2026-05-05 06:29 | 40.12287 | -73.28029 | 20222 ft | 381 kts | 224° |
| 2026-05-05 06:29 | 40.10331 | -73.30360 | 19988 ft | 380 kts | 223° |
| 2026-05-05 06:30 | 40.08382 | -73.32679 | 19787 ft | 377 kts | 224° |
| 2026-05-05 06:30 | 40.06444 | -73.34983 | 19589 ft | 376 kts | 224° |
| 2026-05-05 06:30 | 40.04511 | -73.37278 | 19397 ft | 375 kts | 224° |
| 2026-05-05 06:30 | 40.02587 | -73.39558 | 19205 ft | 373 kts | 223° |
| 2026-05-05 06:31 | 40.00662 | -73.41839 | 19014 ft | 373 kts | 224° |
| 2026-05-05 06:31 | 39.98746 | -73.44106 | 18822 ft | 371 kts | 224° |
| 2026-05-05 06:31 | 39.96833 | -73.46368 | 18633 ft | 371 kts | 223° |
| 2026-05-05 06:31 | 39.94922 | -73.48624 | 18451 ft | 369 kts | 223° |
| 2026-05-05 06:32 | 39.93021 | -73.50866 | 18263 ft | 369 kts | 223° |
| 2026-05-05 06:32 | 39.91122 | -73.53104 | 18029 ft | 366 kts | 224° |
| 2026-05-05 06:32 | 39.89395 | -73.55458 | 17826 ft | 365 kts | 231° |
| 2026-05-05 06:32 | 39.87797 | -73.58020 | 17612 ft | 364 kts | 232° |
| 2026-05-05 06:33 | 39.86203 | -73.60563 | 17395 ft | 362 kts | 232° |
| 2026-05-05 06:33 | 39.84608 | -73.63100 | 17184 ft | 362 kts | 232° |
| 2026-05-05 06:33 | 39.83014 | -73.65626 | 16981 ft | 359 kts | 232° |
| 2026-05-05 06:33 | 39.81425 | -73.68145 | 16773 ft | 360 kts | 231° |
| 2026-05-05 06:34 | 39.79835 | -73.70660 | 16562 ft | 359 kts | 232° |
| 2026-05-05 06:34 | 39.78254 | -73.73163 | 16362 ft | 358 kts | 232° |
| 2026-05-05 06:34 | 39.76673 | -73.75669 | 16145 ft | 357 kts | 232° |
| 2026-05-05 06:34 | 39.75096 | -73.78163 | 15955 ft | 355 kts | 231° |
| 2026-05-05 06:35 | 39.73527 | -73.80639 | 15745 ft | 355 kts | 232° |
| 2026-05-05 06:35 | 39.71959 | -73.83112 | 15546 ft | 353 kts | 232° |
| 2026-05-05 06:35 | 39.70394 | -73.85573 | 15343 ft | 352 kts | 232° |
| 2026-05-05 06:35 | 39.68838 | -73.88023 | 15144 ft | 351 kts | 232° |
| 2026-05-05 06:36 | 39.67287 | -73.90463 | 14952 ft | 349 kts | 232° |
| 2026-05-05 06:36 | 39.65737 | -73.92900 | 14762 ft | 350 kts | 232° |
| 2026-05-05 06:36 | 39.64208 | -73.95300 | 14568 ft | 349 kts | 232° |
| 2026-05-05 06:36 | 39.62667 | -73.97717 | 14372 ft | 347 kts | 232° |
| 2026-05-05 06:37 | 39.61122 | -74.00134 | 14187 ft | 347 kts | 233° |
| 2026-05-05 06:37 | 39.59586 | -74.02545 | 14038 ft | 347 kts | 232° |
| 2026-05-05 06:37 | 39.58052 | -74.04955 | 14030 ft | 346 kts | 232° |
| 2026-05-05 06:37 | 39.56517 | -74.07365 | 14031 ft | 347 kts | 232° |
| 2026-05-05 06:38 | 39.55100 | -74.09884 | 14013 ft | 346 kts | 239° |
| 2026-05-05 06:38 | 39.53972 | -74.12627 | 13818 ft | 340 kts | 247° |
| 2026-05-05 06:38 | 39.53183 | -74.15446 | 13631 ft | 326 kts | 255° |
| 2026-05-05 06:38 | 39.52706 | -74.18284 | 13439 ft | 320 kts | 262° |
| 2026-05-05 06:39 | 39.52514 | -74.21155 | 13253 ft | 319 kts | 269° |
| 2026-05-05 06:39 | 39.52555 | -74.24018 | 13064 ft | 318 kts | 271° |
| 2026-05-05 06:39 | 39.52615 | -74.26877 | 12880 ft | 317 kts | 271° |
| 2026-05-05 06:39 | 39.52670 | -74.29729 | 12696 ft | 316 kts | 271° |
| 2026-05-05 06:40 | 39.52724 | -74.32569 | 12516 ft | 314 kts | 271° |
| 2026-05-05 06:40 | 39.52774 | -74.35310 | 12329 ft | 299 kts | 271° |
| 2026-05-05 06:40 | 39.52822 | -74.37886 | 12149 ft | 275 kts | 271° |
| 2026-05-05 06:40 | 39.52866 | -74.40319 | 11972 ft | 267 kts | 271° |
| 2026-05-05 06:41 | 39.52909 | -74.42712 | 11798 ft | 265 kts | 271° |
| 2026-05-05 06:41 | 39.52948 | -74.45100 | 11616 ft | 265 kts | 271° |
| 2026-05-05 06:41 | 39.52987 | -74.47480 | 11426 ft | 264 kts | 271° |
| 2026-05-05 06:41 | 39.53029 | -74.49851 | 11277 ft | 263 kts | 271° |
| 2026-05-05 06:42 | 39.53070 | -74.52221 | 11122 ft | 263 kts | 271° |
| 2026-05-05 06:42 | 39.53110 | -74.54580 | 10965 ft | 262 kts | 271° |
| 2026-05-05 06:42 | 39.53149 | -74.56945 | 10816 ft | 262 kts | 271° |
| 2026-05-05 06:42 | 39.53185 | -74.59301 | 10616 ft | 261 kts | 271° |
| 2026-05-05 06:43 | 39.53221 | -74.61653 | 10423 ft | 261 kts | 271° |
| 2026-05-05 06:43 | 39.53260 | -74.64002 | 10229 ft | 260 kts | 271° |
| 2026-05-05 06:43 | 39.53298 | -74.66339 | 10036 ft | 259 kts | 271° |
| 2026-05-05 06:43 | 39.53336 | -74.68673 | 9843 ft | 259 kts | 271° |
| 2026-05-05 06:44 | 39.53374 | -74.70970 | 9637 ft | 258 kts | 271° |
| 2026-05-05 06:44 | 39.53412 | -74.73287 | 9427 ft | 257 kts | 272° |
| 2026-05-05 06:44 | 39.53783 | -74.75531 | 9180 ft | 256 kts | 294° |
| 2026-05-05 06:44 | 39.54849 | -74.77371 | 8924 ft | 260 kts | 318° |
| 2026-05-05 06:45 | 39.56444 | -74.78507 | 8664 ft | 265 kts | 333° |
| 2026-05-05 06:45 | 39.58141 | -74.79435 | 8409 ft | 265 kts | 333° |
| 2026-05-05 06:45 | 39.59840 | -74.80362 | 8156 ft | 264 kts | 333° |
| 2026-05-05 06:45 | 39.61532 | -74.81288 | 7886 ft | 263 kts | 333° |
| 2026-05-05 06:46 | 39.63208 | -74.82211 | 7606 ft | 259 kts | 332° |
| 2026-05-05 06:46 | 39.64844 | -74.83116 | 7334 ft | 252 kts | 332° |
| 2026-05-05 06:46 | 39.66437 | -74.83998 | 7055 ft | 245 kts | 332° |
| 2026-05-05 06:46 | 39.67988 | -74.84854 | 6790 ft | 239 kts | 332° |
| 2026-05-05 06:47 | 39.69497 | -74.85686 | 6555 ft | 231 kts | 331° |
| 2026-05-05 06:47 | 39.70964 | -74.86494 | 6291 ft | 227 kts | 331° |
| 2026-05-05 06:47 | 39.72394 | -74.87286 | 6038 ft | 225 kts | 331° |
| 2026-05-05 06:47 | 39.73818 | -74.88075 | 5787 ft | 220 kts | 330° |
| 2026-05-05 06:48 | 39.75222 | -74.88854 | 5529 ft | 218 kts | 330° |
| 2026-05-05 06:48 | 39.76618 | -74.89629 | 5277 ft | 217 kts | 330° |
| 2026-05-05 06:48 | 39.78003 | -74.90398 | 5034 ft | 217 kts | 330° |
| 2026-05-05 06:48 | 39.79386 | -74.91167 | 4790 ft | 216 kts | 329° |
| 2026-05-05 06:49 | 39.80764 | -74.91932 | 4540 ft | 214 kts | 329° |
| 2026-05-05 06:49 | 39.82133 | -74.92693 | 4282 ft | 214 kts | 329° |
| 2026-05-05 06:49 | 39.83501 | -74.93453 | 4034 ft | 214 kts | 328° |
| 2026-05-05 06:49 | 39.84867 | -74.94212 | 3784 ft | 213 kts | 328° |
| 2026-05-05 06:50 | 39.86222 | -74.94963 | 3544 ft | 208 kts | 328° |
| 2026-05-05 06:50 | 39.87517 | -74.95674 | 3330 ft | 194 kts | 328° |
| 2026-05-05 06:50 | 39.88729 | -74.96342 | 3087 ft | 187 kts | 327° |
| 2026-05-05 06:50 | 39.89898 | -74.97038 | 3007 ft | 181 kts | 319° |
| 2026-05-05 06:51 | 39.90826 | -74.98080 | 3008 ft | 173 kts | 300° |
| 2026-05-05 06:51 | 39.91409 | -74.99401 | 3007 ft | 166 kts | 283° |
| 2026-05-05 06:51 | 39.91627 | -75.00817 | 3005 ft | 161 kts | 268° |
| 2026-05-05 06:51 | 39.91491 | -75.02248 | 2974 ft | 159 kts | 255° |
| 2026-05-05 06:52 | 39.91220 | -75.03618 | 2827 ft | 149 kts | 255° |
| 2026-05-05 06:52 | 39.90966 | -75.04905 | 2664 ft | 144 kts | 255° |
| 2026-05-05 06:52 | 39.90720 | -75.06152 | 2498 ft | 141 kts | 255° |
| 2026-05-05 06:52 | 39.90475 | -75.07390 | 2320 ft | 140 kts | 255° |
| 2026-05-05 06:53 | 39.90233 | -75.08616 | 2137 ft | 137 kts | 253° |
| 2026-05-05 06:53 | 39.89996 | -75.09816 | 1964 ft | 135 kts | 253° |
| 2026-05-05 06:53 | 39.89759 | -75.11011 | 1793 ft | 137 kts | 253° |
| 2026-05-05 06:53 | 39.89522 | -75.12211 | 1613 ft | 137 kts | 252° |
| 2026-05-05 06:54 | 39.89281 | -75.13422 | 1406 ft | 139 kts | 252° |
| 2026-05-05 06:54 | 39.89045 | -75.14612 | 1243 ft | 136 kts | 252° |
| 2026-05-05 06:54 | 39.88807 | -75.15827 | 1083 ft | 137 kts | 252° |
| 2026-05-05 06:54 | 39.88579 | -75.17030 | 843 ft | 140 kts | 252° |
| 2026-05-05 06:55 | 39.88346 | -75.18245 | 659 ft | 137 kts | 252° |
| 2026-05-05 06:55 | 39.88100 | -75.19444 | 477 ft | 135 kts | 251° |
| 2026-05-05 06:55 | 39.87853 | -75.20623 | 334 ft | 135 kts | 251° |
| 2026-05-05 06:55 | 39.87622 | -75.21802 | 121 ft | 134 kts | 251° |
| 2026-05-05 06:56 | 39.87394 | -75.22951 | 28 ft | 121 kts | 252° |
| 2026-05-05 06:56 | 39.87218 | -75.23813 | 26 ft | 74 kts | 255° |
| 2026-05-05 06:56 | 39.87130 | -75.24260 | 30 ft | 37 kts | 255° |
| 2026-05-05 06:56 | 39.87071 | -75.24551 | 27 ft | 26 kts | 255° |
| 2026-05-05 06:57 | 39.87037 | -75.24737 | 26 ft | 19 kts | 264° |
| 2026-05-05 06:57 | 39.87103 | -75.24827 | 27 ft | 9 kts | 345° |
| 2026-05-05 06:57 | 39.87170 | -75.24852 | 28 ft | 11 kts | 354° |
| 2026-05-05 06:57 | 39.87210 | -75.24784 | 26 ft | 11 kts | 76° |
| 2026-05-05 06:58 | 39.87231 | -75.24680 | 30 ft | 13 kts | 75° |
| 2026-05-05 06:58 | 39.87255 | -75.24562 | 26 ft | 14 kts | 75° |
| 2026-05-05 06:58 | 39.87281 | -75.24428 | 26 ft | 16 kts | 76° |
| 2026-05-05 06:58 | 39.87300 | -75.24332 | 26 ft | 17 kts | 75° |
| 2026-05-05 06:59 | 39.87335 | -75.24237 | 29 ft | 10 kts | 34° |
| 2026-05-05 06:59 | 39.87406 | -75.24237 | 29 ft | 11 kts | 344° |
| 2026-05-05 06:59 | 39.87435 | -75.24287 | 27 ft | 2 kts | 286° |
| 2026-05-05 06:59 | 39.87437 | -75.24296 | 27 ft | 1 kts | 286° |
| 2026-05-05 07:00 | 39.87439 | -75.24304 | 26 ft | 0 kts | 286° |